»·PEaware :: DAL82 KEGE-KSLC

DAL82 :: KEGE-KSLC

FLIGHT INFORMATION

Flight Status: Arrived
Operator:
Delta Air Lines
More flights by this operator :: More flights under this callsign
Pilot: Justin S. (9599)
Aircraft: BOEING 737-200
(B732)
More flights by this aircraft type
Origin: KEGE Eagle Co Regl
United States
Destination: KSLC Salt Lake City Intl
United States
More flights between these airports :: More routes between these airports
Route: +EKR2 EKR SPANE7
File this flight plan on PilotEdge
Remarks:
Altitude:
(Current/Filed)
28,000ft
Speed:
(Current/Filed)
450kts
Departed: 20-Jan-18 12:16 PM
Arrived: 20-Jan-18 01:22 PM
Distance/Time
Traveled:
242nm/1:06
Distance/Time
To Go:
Arrived

Flight Plot

Page will automatically refresh every two minutes.

Flight plan parsing failed; only flown route is shown


Map Options




Map Legend


Flown Route
Filed Route
Departure Airport
Arrival Airport
Navaid (VOR, NDB)
Fix

Horizontal Profiles

Position Reports

Time Latitude Longitude Heading Altitude Ground
Speed
20-Jan-18 11:43 39.641044 -106.911639 171 6553ft 0kts
20-Jan-18 11:44 39.641044 -106.911639 171 6553ft 0kts
20-Jan-18 11:45 39.641044 -106.911639 171 6553ft 0kts
20-Jan-18 11:46 39.641044 -106.911639 171 6553ft 0kts
20-Jan-18 11:47 39.641044 -106.911639 171 6553ft 0kts
20-Jan-18 11:48 39.641044 -106.911639 171 6553ft 0kts
20-Jan-18 11:49 39.641044 -106.911639 171 6553ft 0kts
20-Jan-18 11:50 39.641044 -106.911639 171 6553ft 0kts
20-Jan-18 11:51 39.641044 -106.911639 171 6553ft 0kts
20-Jan-18 11:52 39.641044 -106.911639 171 6553ft 0kts
20-Jan-18 11:53 39.641044 -106.911639 171 6553ft 0kts
20-Jan-18 11:54 39.641044 -106.911639 171 6553ft 0kts
20-Jan-18 11:55 39.641044 -106.911639 171 6553ft 0kts
20-Jan-18 11:56 39.641044 -106.911639 171 6553ft 0kts
20-Jan-18 11:57 39.641044 -106.911639 171 6553ft 0kts
20-Jan-18 11:58 39.641044 -106.911639 171 6553ft 0kts
20-Jan-18 11:59 39.641044 -106.911639 171 6553ft 0kts
20-Jan-18 12:00 39.641044 -106.911639 171 6553ft 0kts
20-Jan-18 12:04 39.641044 -106.911639 171 6553ft 0kts
20-Jan-18 12:05 39.641044 -106.911639 171 6553ft 0kts
20-Jan-18 12:06 39.641044 -106.911639 171 6553ft 0kts
20-Jan-18 12:07 39.641044 -106.911639 171 6553ft 0kts
20-Jan-18 12:08 39.641044 -106.911639 171 6553ft 0kts
20-Jan-18 12:09 39.641044 -106.911639 171 6553ft 0kts
20-Jan-18 12:10 39.641044 -106.911639 171 6553ft 0kts
20-Jan-18 12:11 39.641471 -106.911837 116 6553ft 2kts
20-Jan-18 12:12 39.641489 -106.912095 81 6553ft 0kts
20-Jan-18 12:13 39.641489 -106.912095 81 6553ft 0kts
20-Jan-18 12:14 39.641489 -106.912095 81 6553ft 0kts
20-Jan-18 12:15 39.641489 -106.912095 81 6553ft 0kts
20-Jan-18 12:16 39.641489 -106.912095 81 6553ft 0kts
20-Jan-18 12:17 39.641582 -106.911306 80 6553ft 4kts
20-Jan-18 12:18 39.641798 -106.909218 81 6553ft 10kts
20-Jan-18 12:19 39.642531 -106.903710 39 6553ft 12kts
20-Jan-18 12:20 39.643284 -106.901059 81 6553ft 7kts
20-Jan-18 12:21 39.644401 -106.900534 292 6553ft 17kts
20-Jan-18 12:22 39.643138 -106.912455 262 6553ft 118kts
20-Jan-18 12:23 39.624654 -106.957688 223 7870ft 158kts
20-Jan-18 12:24 39.593119 -106.994887 251 9685ft 150kts
20-Jan-18 12:25 39.629306 -107.021607 350 10903ft 208kts
20-Jan-18 12:26 39.693642 -107.056772 328 11408ft 285kts
20-Jan-18 12:27 39.768140 -107.103728 328 12971ft 308kts
20-Jan-18 12:28 39.829324 -107.168216 284 14662ft 287kts
20-Jan-18 12:29 39.861417 -107.267774 283 15859ft 315kts
20-Jan-18 12:30 39.896046 -107.376670 283 17201ft 333kts
20-Jan-18 12:31 39.929133 -107.481683 282 18607ft 339kts
20-Jan-18 12:32 39.964779 -107.595518 282 20119ft 340kts
20-Jan-18 12:33 39.998010 -107.702570 280 21500ft 338kts
20-Jan-18 12:34 40.032979 -107.815514 280 22893ft 336kts
20-Jan-18 12:35 40.067390 -107.927015 279 24171ft 332kts
20-Jan-18 12:36 40.073968 -108.037996 259 25321ft 305kts
20-Jan-18 12:37 40.076438 -108.150077 261 25865ft 321kts
20-Jan-18 12:38 40.080478 -108.271344 262 25860ft 347kts
20-Jan-18 12:39 40.085193 -108.401024 262 25857ft 368kts
20-Jan-18 12:40 40.089906 -108.537234 263 25853ft 383kts
20-Jan-18 12:41 40.094535 -108.672894 262 25854ft 395kts
20-Jan-18 12:42 40.098261 -108.815988 262 25844ft 403kts
20-Jan-18 12:43 40.110100 -108.955359 265 25821ft 412kts
20-Jan-18 12:44 40.117318 -109.104549 263 25817ft 415kts
20-Jan-18 12:45 40.122982 -109.255355 263 25817ft 419kts
20-Jan-18 12:46 40.128109 -109.407931 263 25817ft 422kts
20-Jan-18 12:47 40.133037 -109.561545 263 25816ft 425kts
20-Jan-18 12:48 40.136710 -109.680863 262 25822ft 426kts
20-Jan-18 12:49 40.140197 -109.805051 263 25820ft 428kts
20-Jan-18 12:50 40.144681 -109.959136 262 25819ft 429kts
20-Jan-18 12:51 40.149249 -110.113625 263 25817ft 430kts
20-Jan-18 12:52 40.147720 -110.268468 260 25803ft 427kts
20-Jan-18 12:53 40.145355 -110.421336 260 25781ft 428kts
20-Jan-18 12:54 40.142882 -110.576394 260 25779ft 427kts
20-Jan-18 12:55 40.139833 -110.724788 259 25784ft 427kts
20-Jan-18 12:56 40.136793 -110.879595 259 25783ft 428kts
20-Jan-18 12:57 40.133696 -111.033799 260 25850ft 427kts
20-Jan-18 12:58 40.130560 -111.187019 260 25882ft 402kts
20-Jan-18 12:59 40.127704 -111.321180 259 25125ft 346kts
20-Jan-18 13:00 40.123866 -111.441867 261 23341ft 325kts
20-Jan-18 13:01 40.141161 -111.557043 281 20986ft 326kts
20-Jan-18 13:02 40.173702 -111.671057 272 16645ft 358kts
20-Jan-18 13:03 40.127799 -111.764905 211 13826ft 320kts
20-Jan-18 13:04 40.056797 -111.825426 235 11988ft 292kts
20-Jan-18 13:05 40.077018 -111.899672 347 12025ft 248kts
20-Jan-18 13:06 40.150854 -111.914422 351 11993ft 287kts
20-Jan-18 13:07 40.229770 -111.929550 350 11992ft 288kts
20-Jan-18 13:08 40.309545 -111.944747 354 11990ft 293kts
20-Jan-18 13:09 40.390096 -111.927043 11 11998ft 296kts
20-Jan-18 13:10 40.467141 -111.906721 11 12003ft 299kts
20-Jan-18 13:11 40.545080 -111.886084 10 11487ft 283kts
20-Jan-18 13:12 40.621538 -111.867010 355 9984ft 283kts
20-Jan-18 13:13 40.656556 -111.913794 272 10012ft 231kts
20-Jan-18 13:14 40.659207 -111.991814 271 9979ft 196kts
20-Jan-18 13:15 40.647422 -112.047792 193 10025ft 184kts
20-Jan-18 13:16 40.595322 -112.039364 179 10005ft 194kts
20-Jan-18 13:17 40.541471 -112.039315 181 9357ft 193kts
20-Jan-18 13:18 40.488677 -112.039666 181 9026ft 190kts
20-Jan-18 13:19 40.474061 -111.993625 37 9038ft 194kts
20-Jan-18 13:20 40.521438 -111.954672 31 8503ft 213kts
20-Jan-18 13:21 40.569645 -111.914731 31 7971ft 189kts
20-Jan-18 13:22 40.607219 -111.892644 341 7107ft 184kts
20-Jan-18 13:23 40.627197 -111.960085 312 5991ft 167kts
20-Jan-18 13:24 40.657551 -111.979070 349 6006ft 153kts
20-Jan-18 13:25 40.703867 -111.985630 352 5661ft 148kts
20-Jan-18 13:26 40.738089 -111.990399 351 4999ft 151kts
20-Jan-18 13:27 40.776033 -111.995579 352 4279ft 135kts
20-Jan-18 13:28 40.794980 -111.996559 45 4236ft 21kts
20-Jan-18 13:29 40.795172 -111.996273 53 4236ft 0kts
20-Jan-18 13:30 40.791961 -111.995213 156 4236ft 19kts
20-Jan-18 13:31 40.792199 -111.987041 86 4236ft 16kts
20-Jan-18 13:32 40.790236 -111.984680 132 4236ft 6kts
20-Jan-18 13:33 40.788936 -111.984226 252 4236ft 0kts
20-Jan-18 13:34 40.788864 -111.984519 252 4236ft 0kts
20-Jan-18 13:35 40.788864 -111.984519 252 4236ft 0kts
20-Jan-18 13:36 40.788864 -111.984519 252 4236ft 0kts
20-Jan-18 13:37 40.788864 -111.984519 252 4236ft 0kts
20-Jan-18 13:38 40.788864 -111.984519 252 4236ft 0kts
20-Jan-18 13:39 40.788864 -111.984519 252 4236ft 0kts
20-Jan-18 13:40 40.788864 -111.984519 252 4236ft 0kts
20-Jan-18 13:41 40.788864 -111.984519 252 4236ft 0kts
20-Jan-18 13:42 40.788864 -111.984519 252 4236ft 0kts
20-Jan-18 13:43 40.788864 -111.984519 252 4236ft 0kts

Navigation Log

Ident Type
Flight plan parsing failed, navigation log unavailable